sensor_id;sensor_type;location;lat;lon;timestamp;temperature;humidity
31727;DHT22;18308;53.072;8.820;2022-07-04T00:02:01;16.20;99.90
31727;DHT22;18308;53.072;8.820;2022-07-04T00:04:26;16.20;99.90
31727;DHT22;18308;53.072;8.820;2022-07-04T00:06:52;16.20;99.90
31727;DHT22;18308;53.072;8.820;2022-07-04T00:09:17;16.10;99.90
31727;DHT22;18308;53.072;8.820;2022-07-04T00:11:43;16.10;99.90
31727;DHT22;18308;53.072;8.820;2022-07-04T00:14:08;16.10;99.90
31727;DHT22;18308;53.072;8.820;2022-07-04T00:16:34;16.00;99.90
31727;DHT22;18308;53.072;8.820;2022-07-04T00:19:00;16.00;99.90
31727;DHT22;18308;53.072;8.820;2022-07-04T00:21:25;16.00;99.90
31727;DHT22;18308;53.072;8.820;2022-07-04T00:23:51;16.00;99.90
31727;DHT22;18308;53.072;8.820;2022-07-04T00:26:16;15.90;99.90
31727;DHT22;18308;53.072;8.820;2022-07-04T00:28:42;16.00;99.90
31727;DHT22;18308;53.072;8.820;2022-07-04T00:31:08;16.00;99.90
31727;DHT22;18308;53.072;8.820;2022-07-04T00:33:33;16.00;99.90
31727;DHT22;18308;53.072;8.820;2022-07-04T00:35:59;15.90;99.90
31727;DHT22;18308;53.072;8.820;2022-07-04T00:38:24;15.90;99.90
31727;DHT22;18308;53.072;8.820;2022-07-04T00:40:50;15.90;99.90
31727;DHT22;18308;53.072;8.820;2022-07-04T00:43:25;15.80;99.90
31727;DHT22;18308;53.072;8.820;2022-07-04T00:45:50;15.80;99.90
31727;DHT22;18308;53.072;8.820;2022-07-04T00:48:16;15.70;99.90
31727;DHT22;18308;53.072;8.820;2022-07-04T00:50:45;15.70;99.90
31727;DHT22;18308;53.072;8.820;2022-07-04T00:53:12;15.70;99.90
31727;DHT22;18308;53.072;8.820;2022-07-04T00:55:38;15.70;99.90
31727;DHT22;18308;53.072;8.820;2022-07-04T00:58:03;15.60;99.90
31727;DHT22;18308;53.072;8.820;2022-07-04T01:00:29;15.60;99.90
31727;DHT22;18308;53.072;8.820;2022-07-04T01:02:55;15.50;99.90
31727;DHT22;18308;53.072;8.820;2022-07-04T01:05:20;15.50;99.90
31727;DHT22;18308;53.072;8.820;2022-07-04T01:07:46;15.50;99.90
31727;DHT22;18308;53.072;8.820;2022-07-04T01:10:12;15.60;99.90
31727;DHT22;18308;53.072;8.820;2022-07-04T01:12:37;15.40;99.90
31727;DHT22;18308;53.072;8.820;2022-07-04T01:15:04;15.40;99.90
31727;DHT22;18308;53.072;8.820;2022-07-04T01:17:29;15.40;99.90
31727;DHT22;18308;53.072;8.820;2022-07-04T01:19:55;15.40;99.90
31727;DHT22;18308;53.072;8.820;2022-07-04T01:22:20;15.40;99.90
31727;DHT22;18308;53.072;8.820;2022-07-04T01:24:48;15.40;99.90
31727;DHT22;18308;53.072;8.820;2022-07-04T01:27:13;15.40;99.90
31727;DHT22;18308;53.072;8.820;2022-07-04T01:29:39;15.40;99.90
31727;DHT22;18308;53.072;8.820;2022-07-04T01:32:05;15.30;99.90
31727;DHT22;18308;53.072;8.820;2022-07-04T01:34:31;15.30;99.90
31727;DHT22;18308;53.072;8.820;2022-07-04T01:36:58;15.30;99.90
31727;DHT22;18308;53.072;8.820;2022-07-04T01:39:23;15.20;99.90
31727;DHT22;18308;53.072;8.820;2022-07-04T01:41:49;15.30;99.90
31727;DHT22;18308;53.072;8.820;2022-07-04T01:44:14;15.20;99.90
31727;DHT22;18308;53.072;8.820;2022-07-04T01:46:39;15.20;99.90
31727;DHT22;18308;53.072;8.820;2022-07-04T01:49:05;15.10;99.90
31727;DHT22;18308;53.072;8.820;2022-07-04T01:51:30;15.00;99.90
31727;DHT22;18308;53.072;8.820;2022-07-04T01:53:56;15.10;99.90
31727;DHT22;18308;53.072;8.820;2022-07-04T01:56:21;15.10;99.90
31727;DHT22;18308;53.072;8.820;2022-07-04T01:58:47;15.10;99.90
31727;DHT22;18308;53.072;8.820;2022-07-04T02:01:12;15.00;99.90
31727;DHT22;18308;53.072;8.820;2022-07-04T02:03:57;15.10;99.90
31727;DHT22;18308;53.072;8.820;2022-07-04T02:06:22;15.10;99.90
31727;DHT22;18308;53.072;8.820;2022-07-04T02:08:48;15.00;99.90
31727;DHT22;18308;53.072;8.820;2022-07-04T02:11:32;15.10;99.90
31727;DHT22;18308;53.072;8.820;2022-07-04T02:14:17;15.00;99.90
31727;DHT22;18308;53.072;8.820;2022-07-04T02:16:43;15.00;99.90
31727;DHT22;18308;53.072;8.820;2022-07-04T02:19:08;15.00;99.90
31727;DHT22;18308;53.072;8.820;2022-07-04T02:21:34;15.00;99.90
31727;DHT22;18308;53.072;8.820;2022-07-04T02:23:59;14.90;99.90
31727;DHT22;18308;53.072;8.820;2022-07-04T02:26:25;14.90;99.90
31727;DHT22;18308;53.072;8.820;2022-07-04T02:28:51;15.00;99.90
31727;DHT22;18308;53.072;8.820;2022-07-04T02:31:16;15.00;99.90
31727;DHT22;18308;53.072;8.820;2022-07-04T02:33:42;14.90;99.90
31727;DHT22;18308;53.072;8.820;2022-07-04T02:36:07;15.00;99.90
31727;DHT22;18308;53.072;8.820;2022-07-04T02:38:33;15.00;99.90
31727;DHT22;18308;53.072;8.820;2022-07-04T02:40:58;15.00;99.90
31727;DHT22;18308;53.072;8.820;2022-07-04T02:43:24;15.00;99.90
31727;DHT22;18308;53.072;8.820;2022-07-04T02:45:49;15.00;99.90
31727;DHT22;18308;53.072;8.820;2022-07-04T02:48:14;15.00;99.90
31727;DHT22;18308;53.072;8.820;2022-07-04T02:50:40;15.00;99.90
31727;DHT22;18308;53.072;8.820;2022-07-04T02:53:05;15.00;99.90
31727;DHT22;18308;53.072;8.820;2022-07-04T02:55:31;15.10;99.90
31727;DHT22;18308;53.072;8.820;2022-07-04T02:57:56;15.10;99.90
31727;DHT22;18308;53.072;8.820;2022-07-04T03:00:22;15.00;99.90
31727;DHT22;18308;53.072;8.820;2022-07-04T03:02:47;15.00;99.90
31727;DHT22;18308;53.072;8.820;2022-07-04T03:05:13;15.00;99.90
31727;DHT22;18308;53.072;8.820;2022-07-04T03:07:38;15.00;99.90
31727;DHT22;18308;53.072;8.820;2022-07-04T03:10:04;15.00;99.90
31727;DHT22;18308;53.072;8.820;2022-07-04T03:12:30;15.00;99.90
31727;DHT22;18308;53.072;8.820;2022-07-04T03:14:55;15.00;99.90
31727;DHT22;18308;53.072;8.820;2022-07-04T03:17:21;15.00;99.90
31727;DHT22;18308;53.072;8.820;2022-07-04T03:19:46;15.00;99.90
31727;DHT22;18308;53.072;8.820;2022-07-04T03:22:12;15.00;99.90
31727;DHT22;18308;53.072;8.820;2022-07-04T03:24:37;15.00;99.90
31727;DHT22;18308;53.072;8.820;2022-07-04T03:27:03;14.90;99.90
31727;DHT22;18308;53.072;8.820;2022-07-04T03:29:29;14.90;99.90
31727;DHT22;18308;53.072;8.820;2022-07-04T03:31:55;14.90;99.90
31727;DHT22;18308;53.072;8.820;2022-07-04T03:34:20;14.90;99.90
31727;DHT22;18308;53.072;8.820;2022-07-04T03:36:46;14.80;99.90
31727;DHT22;18308;53.072;8.820;2022-07-04T03:39:11;14.80;99.90
31727;DHT22;18308;53.072;8.820;2022-07-04T03:41:36;14.90;99.90
31727;DHT22;18308;53.072;8.820;2022-07-04T03:44:02;14.80;99.90
31727;DHT22;18308;53.072;8.820;2022-07-04T03:46:27;14.70;99.90
31727;DHT22;18308;53.072;8.820;2022-07-04T03:48:53;14.80;99.90
31727;DHT22;18308;53.072;8.820;2022-07-04T03:51:20;14.80;99.90
31727;DHT22;18308;53.072;8.820;2022-07-04T03:53:45;14.80;99.90
31727;DHT22;18308;53.072;8.820;2022-07-04T03:56:11;14.80;99.90
31727;DHT22;18308;53.072;8.820;2022-07-04T03:58:36;14.80;99.90
31727;DHT22;18308;53.072;8.820;2022-07-04T04:01:02;14.80;99.90
31727;DHT22;18308;53.072;8.820;2022-07-04T04:03:28;14.80;99.90
31727;DHT22;18308;53.072;8.820;2022-07-04T04:06:12;14.80;99.90
31727;DHT22;18308;53.072;8.820;2022-07-04T04:08:37;14.80;99.90
31727;DHT22;18308;53.072;8.820;2022-07-04T04:11:03;14.80;99.90
31727;DHT22;18308;53.072;8.820;2022-07-04T04:13:28;14.80;99.90
31727;DHT22;18308;53.072;8.820;2022-07-04T04:15:54;14.80;99.90
31727;DHT22;18308;53.072;8.820;2022-07-04T04:18:19;14.80;99.90
31727;DHT22;18308;53.072;8.820;2022-07-04T04:20:45;14.80;99.90
31727;DHT22;18308;53.072;8.820;2022-07-04T04:23:10;14.90;99.90
31727;DHT22;18308;53.072;8.820;2022-07-04T04:25:36;14.90;99.90
31727;DHT22;18308;53.072;8.820;2022-07-04T04:28:01;14.90;99.90
31727;DHT22;18308;53.072;8.820;2022-07-04T04:30:27;15.00;99.90
31727;DHT22;18308;53.072;8.820;2022-07-04T04:32:52;15.00;99.90
31727;DHT22;18308;53.072;8.820;2022-07-04T04:35:18;15.00;99.90
31727;DHT22;18308;53.072;8.820;2022-07-04T04:37:44;15.00;99.90
31727;DHT22;18308;53.072;8.820;2022-07-04T04:40:10;15.10;99.90
31727;DHT22;18308;53.072;8.820;2022-07-04T04:42:36;15.10;99.90
31727;DHT22;18308;53.072;8.820;2022-07-04T04:45:03;15.20;99.90
31727;DHT22;18308;53.072;8.820;2022-07-04T04:47:29;15.30;99.90
31727;DHT22;18308;53.072;8.820;2022-07-04T04:49:54;15.30;99.90
31727;DHT22;18308;53.072;8.820;2022-07-04T04:52:20;15.30;99.90
31727;DHT22;18308;53.072;8.820;2022-07-04T04:54:45;15.40;99.90
31727;DHT22;18308;53.072;8.820;2022-07-04T04:57:11;15.40;99.90
31727;DHT22;18308;53.072;8.820;2022-07-04T04:59:36;15.40;99.90
31727;DHT22;18308;53.072;8.820;2022-07-04T05:02:02;15.50;99.90
31727;DHT22;18308;53.072;8.820;2022-07-04T05:04:28;15.70;99.90
31727;DHT22;18308;53.072;8.820;2022-07-04T05:06:53;15.70;99.90
31727;DHT22;18308;53.072;8.820;2022-07-04T05:09:19;15.80;99.90
31727;DHT22;18308;53.072;8.820;2022-07-04T05:11:45;15.90;99.90
31727;DHT22;18308;53.072;8.820;2022-07-04T05:14:10;16.00;99.90
31727;DHT22;18308;53.072;8.820;2022-07-04T05:16:36;16.10;99.90
31727;DHT22;18308;53.072;8.820;2022-07-04T05:19:01;16.20;99.90
31727;DHT22;18308;53.072;8.820;2022-07-04T05:21:27;16.30;99.90
31727;DHT22;18308;53.072;8.820;2022-07-04T05:23:53;16.40;99.90
31727;DHT22;18308;53.072;8.820;2022-07-04T05:26:19;16.40;99.90
31727;DHT22;18308;53.072;8.820;2022-07-04T05:28:44;16.40;99.90
31727;DHT22;18308;53.072;8.820;2022-07-04T05:31:10;16.50;99.90
31727;DHT22;18308;53.072;8.820;2022-07-04T05:33:35;16.50;99.90
31727;DHT22;18308;53.072;8.820;2022-07-04T05:36:01;16.60;99.90
31727;DHT22;18308;53.072;8.820;2022-07-04T05:38:26;16.70;99.90
31727;DHT22;18308;53.072;8.820;2022-07-04T05:40:52;16.80;99.90
31727;DHT22;18308;53.072;8.820;2022-07-04T05:43:17;16.90;99.90
31727;DHT22;18308;53.072;8.820;2022-07-04T05:45:43;17.00;99.90
31727;DHT22;18308;53.072;8.820;2022-07-04T05:48:08;17.10;99.90
31727;DHT22;18308;53.072;8.820;2022-07-04T05:50:34;17.20;99.90
31727;DHT22;18308;53.072;8.820;2022-07-04T05:53:00;17.20;99.90
31727;DHT22;18308;53.072;8.820;2022-07-04T05:55:25;17.20;99.90
31727;DHT22;18308;53.072;8.820;2022-07-04T05:57:51;17.30;99.90
31727;DHT22;18308;53.072;8.820;2022-07-04T06:00:17;17.50;99.90
31727;DHT22;18308;53.072;8.820;2022-07-04T06:02:42;17.50;99.90
31727;DHT22;18308;53.072;8.820;2022-07-04T06:05:08;17.60;99.90
31727;DHT22;18308;53.072;8.820;2022-07-04T06:07:33;17.60;99.90
31727;DHT22;18308;53.072;8.820;2022-07-04T06:09:59;17.70;99.90
31727;DHT22;18308;53.072;8.820;2022-07-04T06:12:24;17.80;99.90
31727;DHT22;18308;53.072;8.820;2022-07-04T06:14:50;18.00;99.90
31727;DHT22;18308;53.072;8.820;2022-07-04T06:17:15;17.90;99.90
31727;DHT22;18308;53.072;8.820;2022-07-04T06:19:41;17.90;99.90
31727;DHT22;18308;53.072;8.820;2022-07-04T06:22:06;17.90;99.90
31727;DHT22;18308;53.072;8.820;2022-07-04T06:24:32;17.90;99.90
31727;DHT22;18308;53.072;8.820;2022-07-04T06:26:57;18.00;99.90
31727;DHT22;18308;53.072;8.820;2022-07-04T06:29:23;18.10;99.90
31727;DHT22;18308;53.072;8.820;2022-07-04T06:31:48;18.30;99.90
31727;DHT22;18308;53.072;8.820;2022-07-04T06:34:14;18.30;99.90
31727;DHT22;18308;53.072;8.820;2022-07-04T06:36:58;18.40;99.90
31727;DHT22;18308;53.072;8.820;2022-07-04T06:39:23;18.50;99.90
31727;DHT22;18308;53.072;8.820;2022-07-04T06:41:49;18.60;99.90
31727;DHT22;18308;53.072;8.820;2022-07-04T06:44:15;18.60;99.90
31727;DHT22;18308;53.072;8.820;2022-07-04T06:46:40;18.70;99.90
31727;DHT22;18308;53.072;8.820;2022-07-04T06:49:05;18.60;99.90
31727;DHT22;18308;53.072;8.820;2022-07-04T06:51:31;18.60;99.90
31727;DHT22;18308;53.072;8.820;2022-07-04T06:53:57;18.70;99.90
31727;DHT22;18308;53.072;8.820;2022-07-04T06:56:22;18.80;99.90
31727;DHT22;18308;53.072;8.820;2022-07-04T06:58:48;18.90;99.90
31727;DHT22;18308;53.072;8.820;2022-07-04T07:01:16;19.00;99.90
31727;DHT22;18308;53.072;8.820;2022-07-04T07:03:42;19.10;99.90
31727;DHT22;18308;53.072;8.820;2022-07-04T07:06:08;19.10;99.90
31727;DHT22;18308;53.072;8.820;2022-07-04T07:08:33;19.10;99.90
31727;DHT22;18308;53.072;8.820;2022-07-04T07:10:59;19.20;99.90
31727;DHT22;18308;53.072;8.820;2022-07-04T07:13:44;19.10;99.90
31727;DHT22;18308;53.072;8.820;2022-07-04T07:16:11;19.20;99.90
31727;DHT22;18308;53.072;8.820;2022-07-04T07:18:37;19.10;99.90
31727;DHT22;18308;53.072;8.820;2022-07-04T07:21:02;19.20;99.90
31727;DHT22;18308;53.072;8.820;2022-07-04T07:23:28;19.20;99.90
31727;DHT22;18308;53.072;8.820;2022-07-04T07:25:53;19.20;99.90
31727;DHT22;18308;53.072;8.820;2022-07-04T07:28:19;19.20;99.90
31727;DHT22;18308;53.072;8.820;2022-07-04T07:30:45;19.30;99.90
31727;DHT22;18308;53.072;8.820;2022-07-04T07:33:16;19.30;99.90
31727;DHT22;18308;53.072;8.820;2022-07-04T07:35:42;19.50;99.90
31727;DHT22;18308;53.072;8.820;2022-07-04T07:38:07;19.60;99.90
31727;DHT22;18308;53.072;8.820;2022-07-04T07:40:33;19.80;99.90
31727;DHT22;18308;53.072;8.820;2022-07-04T07:42:59;19.80;99.90
31727;DHT22;18308;53.072;8.820;2022-07-04T07:45:24;19.90;99.90
31727;DHT22;18308;53.072;8.820;2022-07-04T07:47:50;20.10;99.90
31727;DHT22;18308;53.072;8.820;2022-07-04T07:50:15;20.10;99.90
31727;DHT22;18308;53.072;8.820;2022-07-04T07:52:41;20.10;99.90
31727;DHT22;18308;53.072;8.820;2022-07-04T07:55:07;20.00;99.90
31727;DHT22;18308;53.072;8.820;2022-07-04T07:57:32;20.20;99.90
31727;DHT22;18308;53.072;8.820;2022-07-04T07:59:58;20.20;99.90
31727;DHT22;18308;53.072;8.820;2022-07-04T08:02:23;20.20;99.90
31727;DHT22;18308;53.072;8.820;2022-07-04T08:05:09;20.30;99.90
31727;DHT22;18308;53.072;8.820;2022-07-04T08:07:35;20.50;99.90
31727;DHT22;18308;53.072;8.820;2022-07-04T08:10:01;20.50;99.90
31727;DHT22;18308;53.072;8.820;2022-07-04T08:12:26;20.50;99.90
31727;DHT22;18308;53.072;8.820;2022-07-04T08:14:52;20.50;99.90
31727;DHT22;18308;53.072;8.820;2022-07-04T08:17:17;20.50;99.90
31727;DHT22;18308;53.072;8.820;2022-07-04T08:19:43;20.60;99.90
31727;DHT22;18308;53.072;8.820;2022-07-04T08:22:08;20.60;99.90
31727;DHT22;18308;53.072;8.820;2022-07-04T08:24:34;20.50;99.90
31727;DHT22;18308;53.072;8.820;2022-07-04T08:26:59;20.50;99.90
31727;DHT22;18308;53.072;8.820;2022-07-04T08:29:25;20.40;99.90
31727;DHT22;18308;53.072;8.820;2022-07-04T08:31:53;20.50;99.90
31727;DHT22;18308;53.072;8.820;2022-07-04T08:34:18;20.60;99.90
31727;DHT22;18308;53.072;8.820;2022-07-04T08:36:44;20.70;99.90
31727;DHT22;18308;53.072;8.820;2022-07-04T08:39:09;21.00;99.90
31727;DHT22;18308;53.072;8.820;2022-07-04T08:41:39;21.30;99.90
31727;DHT22;18308;53.072;8.820;2022-07-04T08:44:06;21.40;99.90
31727;DHT22;18308;53.072;8.820;2022-07-04T08:46:32;21.50;99.90
31727;DHT22;18308;53.072;8.820;2022-07-04T08:48:58;21.40;99.90
31727;DHT22;18308;53.072;8.820;2022-07-04T08:51:31;21.40;99.90
31727;DHT22;18308;53.072;8.820;2022-07-04T08:54:00;21.30;99.90
31727;DHT22;18308;53.072;8.820;2022-07-04T08:56:46;21.60;99.90
31727;DHT22;18308;53.072;8.820;2022-07-04T08:59:30;21.80;99.90
31727;DHT22;18308;53.072;8.820;2022-07-04T09:01:56;22.10;99.90
31727;DHT22;18308;53.072;8.820;2022-07-04T09:04:24;22.10;99.90
31727;DHT22;18308;53.072;8.820;2022-07-04T09:06:50;22.30;99.90
31727;DHT22;18308;53.072;8.820;2022-07-04T09:09:19;22.50;99.90
31727;DHT22;18308;53.072;8.820;2022-07-04T09:11:51;22.60;99.90
31727;DHT22;18308;53.072;8.820;2022-07-04T09:14:16;22.70;99.90
31727;DHT22;18308;53.072;8.820;2022-07-04T09:16:42;22.80;99.90
31727;DHT22;18308;53.072;8.820;2022-07-04T09:19:21;22.90;99.90
31727;DHT22;18308;53.072;8.820;2022-07-04T09:21:47;23.10;99.90
31727;DHT22;18308;53.072;8.820;2022-07-04T09:24:14;23.10;99.90
31727;DHT22;18308;53.072;8.820;2022-07-04T09:26:40;23.00;99.90
31727;DHT22;18308;53.072;8.820;2022-07-04T09:29:05;23.00;99.90
31727;DHT22;18308;53.072;8.820;2022-07-04T09:31:31;22.90;99.90
31727;DHT22;18308;53.072;8.820;2022-07-04T09:34:00;22.80;99.90
31727;DHT22;18308;53.072;8.820;2022-07-04T09:36:30;22.80;99.90
31727;DHT22;18308;53.072;8.820;2022-07-04T09:39:09;22.70;99.90
31727;DHT22;18308;53.072;8.820;2022-07-04T09:42:10;22.70;99.90
31727;DHT22;18308;53.072;8.820;2022-07-04T09:47:18;23.00;99.90
31727;DHT22;18308;53.072;8.820;2022-07-04T09:49:57;23.00;99.90
31727;DHT22;18308;53.072;8.820;2022-07-04T09:52:22;22.60;99.90
31727;DHT22;18308;53.072;8.820;2022-07-04T09:54:48;22.40;99.90
31727;DHT22;18308;53.072;8.820;2022-07-04T09:57:13;22.30;99.90
31727;DHT22;18308;53.072;8.820;2022-07-04T09:59:46;22.50;99.90
31727;DHT22;18308;53.072;8.820;2022-07-04T10:02:12;22.80;99.90
31727;DHT22;18308;53.072;8.820;2022-07-04T10:04:50;22.70;99.90
31727;DHT22;18308;53.072;8.820;2022-07-04T10:07:36;22.70;99.90
31727;DHT22;18308;53.072;8.820;2022-07-04T10:10:19;22.90;99.90
31727;DHT22;18308;53.072;8.820;2022-07-04T10:12:48;23.10;99.90
31727;DHT22;18308;53.072;8.820;2022-07-04T10:15:13;23.20;99.90
31727;DHT22;18308;53.072;8.820;2022-07-04T10:17:39;23.20;99.90
31727;DHT22;18308;53.072;8.820;2022-07-04T10:20:05;23.10;99.90
31727;DHT22;18308;53.072;8.820;2022-07-04T10:22:31;23.00;99.90
31727;DHT22;18308;53.072;8.820;2022-07-04T10:24:57;23.00;99.90
31727;DHT22;18308;53.072;8.820;2022-07-04T10:27:23;23.00;99.90
31727;DHT22;18308;53.072;8.820;2022-07-04T10:29:49;22.90;99.90
31727;DHT22;18308;53.072;8.820;2022-07-04T10:32:15;22.90;99.90
31727;DHT22;18308;53.072;8.820;2022-07-04T10:34:41;22.80;99.90
31727;DHT22;18308;53.072;8.820;2022-07-04T10:37:07;22.70;99.90
31727;DHT22;18308;53.072;8.820;2022-07-04T10:39:32;22.90;99.90
31727;DHT22;18308;53.072;8.820;2022-07-04T10:41:58;23.00;99.90
31727;DHT22;18308;53.072;8.820;2022-07-04T10:44:25;23.00;99.90
31727;DHT22;18308;53.072;8.820;2022-07-04T10:46:52;23.10;99.90
31727;DHT22;18308;53.072;8.820;2022-07-04T10:49:19;23.20;99.90
31727;DHT22;18308;53.072;8.820;2022-07-04T10:51:49;23.10;99.90
31727;DHT22;18308;53.072;8.820;2022-07-04T10:54:16;23.20;99.90
31727;DHT22;18308;53.072;8.820;2022-07-04T10:56:43;23.20;99.90
31727;DHT22;18308;53.072;8.820;2022-07-04T10:59:13;23.30;99.90
31727;DHT22;18308;53.072;8.820;2022-07-04T11:01:39;23.20;99.90
31727;DHT22;18308;53.072;8.820;2022-07-04T11:04:09;23.20;99.90
31727;DHT22;18308;53.072;8.820;2022-07-04T11:11:59;23.10;99.90
31727;DHT22;18308;53.072;8.820;2022-07-04T11:15:07;23.00;99.90
31727;DHT22;18308;53.072;8.820;2022-07-04T11:17:14;23.00;99.90
31727;DHT22;18308;53.072;8.820;2022-07-04T11:19:40;23.10;99.90
31727;DHT22;18308;53.072;8.820;2022-07-04T11:22:07;23.20;99.90
31727;DHT22;18308;53.072;8.820;2022-07-04T11:24:34;23.40;99.90
31727;DHT22;18308;53.072;8.820;2022-07-04T11:27:00;23.40;99.90
31727;DHT22;18308;53.072;8.820;2022-07-04T11:29:26;23.50;99.90
31727;DHT22;18308;53.072;8.820;2022-07-04T11:31:52;23.40;99.90
31727;DHT22;18308;53.072;8.820;2022-07-04T11:34:18;23.30;99.90
31727;DHT22;18308;53.072;8.820;2022-07-04T11:36:44;23.30;99.90
31727;DHT22;18308;53.072;8.820;2022-07-04T11:39:11;23.20;99.90
31727;DHT22;18308;53.072;8.820;2022-07-04T11:41:38;23.10;99.90
31727;DHT22;18308;53.072;8.820;2022-07-04T11:44:23;23.30;99.90
31727;DHT22;18308;53.072;8.820;2022-07-04T11:47:14;23.40;99.90
31727;DHT22;18308;53.072;8.820;2022-07-04T11:52:09;23.60;99.90
31727;DHT22;18308;53.072;8.820;2022-07-04T11:54:35;23.70;99.90
31727;DHT22;18308;53.072;8.820;2022-07-04T11:57:17;23.70;99.60
31727;DHT22;18308;53.072;8.820;2022-07-04T11:59:43;23.60;99.90
31727;DHT22;18308;53.072;8.820;2022-07-04T12:02:16;23.70;99.90
31727;DHT22;18308;53.072;8.820;2022-07-04T12:04:42;23.40;99.70
31727;DHT22;18308;53.072;8.820;2022-07-04T12:07:11;23.20;99.50
31727;DHT22;18308;53.072;8.820;2022-07-04T12:09:37;23.00;99.80
31727;DHT22;18308;53.072;8.820;2022-07-04T12:12:03;23.00;99.90
31727;DHT22;18308;53.072;8.820;2022-07-04T12:14:29;23.20;99.90
31727;DHT22;18308;53.072;8.820;2022-07-04T12:19:35;23.90;99.10
31727;DHT22;18308;53.072;8.820;2022-07-04T12:22:01;24.20;98.80
31727;DHT22;18308;53.072;8.820;2022-07-04T12:24:27;24.50;98.10
31727;DHT22;18308;53.072;8.820;2022-07-04T12:26:53;24.70;97.80
31727;DHT22;18308;53.072;8.820;2022-07-04T12:29:22;24.90;96.90
31727;DHT22;18308;53.072;8.820;2022-07-04T12:31:50;25.00;96.90
31727;DHT22;18308;53.072;8.820;2022-07-04T12:34:16;25.10;96.70
31727;DHT22;18308;53.072;8.820;2022-07-04T12:39:26;24.90;96.40
31727;DHT22;18308;53.072;8.820;2022-07-04T12:42:02;24.60;96.50
31727;DHT22;18308;53.072;8.820;2022-07-04T12:44:28;24.40;96.90
31727;DHT22;18308;53.072;8.820;2022-07-04T12:46:55;24.50;97.00
31727;DHT22;18308;53.072;8.820;2022-07-04T12:49:21;24.60;97.40
31727;DHT22;18308;53.072;8.820;2022-07-04T12:51:47;24.60;96.50
31727;DHT22;18308;53.072;8.820;2022-07-04T12:54:12;24.80;96.60
31727;DHT22;18308;53.072;8.820;2022-07-04T12:56:39;24.80;96.50
31727;DHT22;18308;53.072;8.820;2022-07-04T12:59:06;24.90;96.10
31727;DHT22;18308;53.072;8.820;2022-07-04T13:01:32;24.70;96.50
31727;DHT22;18308;53.072;8.820;2022-07-04T13:03:58;24.70;96.90
31727;DHT22;18308;53.072;8.820;2022-07-04T13:06:24;24.60;96.70
31727;DHT22;18308;53.072;8.820;2022-07-04T13:08:50;24.30;97.10
31727;DHT22;18308;53.072;8.820;2022-07-04T13:11:15;24.10;98.60
31727;DHT22;18308;53.072;8.820;2022-07-04T13:13:59;23.80;99.90
31727;DHT22;18308;53.072;8.820;2022-07-04T13:16:25;23.30;99.90
31727;DHT22;18308;53.072;8.820;2022-07-04T13:18:50;23.10;99.90
31727;DHT22;18308;53.072;8.820;2022-07-04T13:21:16;22.90;99.90
31727;DHT22;18308;53.072;8.820;2022-07-04T13:23:41;22.70;99.90
31727;DHT22;18308;53.072;8.820;2022-07-04T13:26:07;22.70;99.90
31727;DHT22;18308;53.072;8.820;2022-07-04T13:28:33;22.90;99.90
31727;DHT22;18308;53.072;8.820;2022-07-04T13:30:58;23.20;99.90
31727;DHT22;18308;53.072;8.820;2022-07-04T13:33:24;23.30;99.90
31727;DHT22;18308;53.072;8.820;2022-07-04T13:35:49;23.50;99.90
31727;DHT22;18308;53.072;8.820;2022-07-04T13:38:15;23.70;99.90
31727;DHT22;18308;53.072;8.820;2022-07-04T13:40:43;23.80;99.90
31727;DHT22;18308;53.072;8.820;2022-07-04T13:43:10;23.70;99.90
31727;DHT22;18308;53.072;8.820;2022-07-04T13:45:36;23.90;99.90
31727;DHT22;18308;53.072;8.820;2022-07-04T13:48:03;24.10;99.90
31727;DHT22;18308;53.072;8.820;2022-07-04T13:50:29;24.30;99.30
31727;DHT22;18308;53.072;8.820;2022-07-04T13:52:54;24.50;98.20
31727;DHT22;18308;53.072;8.820;2022-07-04T13:55:20;24.60;96.70
31727;DHT22;18308;53.072;8.820;2022-07-04T13:57:45;24.60;96.00
31727;DHT22;18308;53.072;8.820;2022-07-04T14:00:12;24.30;96.50
31727;DHT22;18308;53.072;8.820;2022-07-04T14:02:37;24.10;97.00
31727;DHT22;18308;53.072;8.820;2022-07-04T14:05:03;23.90;97.00
31727;DHT22;18308;53.072;8.820;2022-07-04T14:07:28;23.80;97.50
31727;DHT22;18308;53.072;8.820;2022-07-04T14:09:54;23.70;97.80
31727;DHT22;18308;53.072;8.820;2022-07-04T14:12:20;23.60;97.70
31727;DHT22;18308;53.072;8.820;2022-07-04T14:14:45;23.60;97.80
31727;DHT22;18308;53.072;8.820;2022-07-04T14:17:11;23.80;97.80
31727;DHT22;18308;53.072;8.820;2022-07-04T14:19:36;24.10;97.40
31727;DHT22;18308;53.072;8.820;2022-07-04T14:22:02;24.30;97.20
31727;DHT22;18308;53.072;8.820;2022-07-04T14:24:28;24.30;97.00
31727;DHT22;18308;53.072;8.820;2022-07-04T14:26:53;24.20;96.90
31727;DHT22;18308;53.072;8.820;2022-07-04T14:29:19;24.10;97.60
31727;DHT22;18308;53.072;8.820;2022-07-04T14:31:45;24.00;97.50
31727;DHT22;18308;53.072;8.820;2022-07-04T14:34:11;23.90;97.30
31727;DHT22;18308;53.072;8.820;2022-07-04T14:36:40;23.80;97.30
31727;DHT22;18308;53.072;8.820;2022-07-04T14:39:06;23.90;97.40
31727;DHT22;18308;53.072;8.820;2022-07-04T14:41:32;24.00;97.60
31727;DHT22;18308;53.072;8.820;2022-07-04T14:43:58;24.00;97.80
31727;DHT22;18308;53.072;8.820;2022-07-04T14:46:23;24.10;97.60
31727;DHT22;18308;53.072;8.820;2022-07-04T14:48:49;24.10;97.30
31727;DHT22;18308;53.072;8.820;2022-07-04T14:51:15;24.10;97.70
31727;DHT22;18308;53.072;8.820;2022-07-04T14:53:41;23.90;97.70
31727;DHT22;18308;53.072;8.820;2022-07-04T14:56:07;24.00;97.70
31727;DHT22;18308;53.072;8.820;2022-07-04T14:58:32;23.90;97.00
31727;DHT22;18308;53.072;8.820;2022-07-04T15:00:58;23.70;96.80
31727;DHT22;18308;53.072;8.820;2022-07-04T15:03:24;23.70;97.10
31727;DHT22;18308;53.072;8.820;2022-07-04T15:05:49;23.60;97.40
31727;DHT22;18308;53.072;8.820;2022-07-04T15:08:15;23.60;97.70
31727;DHT22;18308;53.072;8.820;2022-07-04T15:10:40;23.90;97.60
31727;DHT22;18308;53.072;8.820;2022-07-04T15:13:06;24.10;97.40
31727;DHT22;18308;53.072;8.820;2022-07-04T15:15:32;24.10;97.60
31727;DHT22;18308;53.072;8.820;2022-07-04T15:17:57;23.90;97.20
31727;DHT22;18308;53.072;8.820;2022-07-04T15:20:23;23.60;97.40
31727;DHT22;18308;53.072;8.820;2022-07-04T15:23:07;23.50;97.80
31727;DHT22;18308;53.072;8.820;2022-07-04T15:25:51;23.60;97.20
31727;DHT22;18308;53.072;8.820;2022-07-04T15:28:16;23.70;96.80
31727;DHT22;18308;53.072;8.820;2022-07-04T15:30:42;23.90;96.90
31727;DHT22;18308;53.072;8.820;2022-07-04T15:33:08;24.10;96.80
31727;DHT22;18308;53.072;8.820;2022-07-04T15:35:40;24.20;96.40
31727;DHT22;18308;53.072;8.820;2022-07-04T15:38:05;24.40;96.20
31727;DHT22;18308;53.072;8.820;2022-07-04T15:40:31;24.20;95.90
31727;DHT22;18308;53.072;8.820;2022-07-04T15:42:56;24.30;96.10
31727;DHT22;18308;53.072;8.820;2022-07-04T15:45:22;24.30;96.20